Time;durP1;ratioP1;P1;durP2;ratioP2;P2;SDS_P1;SDS_P2;PMS_P1;PMS_P2;Temp;Humidity;BMP_temperature;BMP_pressure;BME280_temperature;BME280_humidity;BME280_pressure;Samples;Min_cycle;Max_cycle;Signal;HPM_P1;HPM_P2
2022/12/13 00:00:39;;;;;;;;;;;-4.50;99.90;;;;;;5046939;28;19940;-84
2022/12/13 00:03:05;;;;;;;;;;;-4.40;99.90;;;;;;5046434;28;20403;-82
2022/12/13 00:05:31;;;;;;;;;;;-4.50;99.90;;;;;;5043861;28;19926;-78
2022/12/13 00:07:58;;;;;;;;;;;-4.50;99.90;;;;;;5023675;28;19925;-79
2022/12/13 00:10:24;;;;;;;;;;;-4.50;99.90;;;;;;5027099;28;20016;-78
2022/12/13 00:12:49;;;;;;;;;;;-4.50;99.90;;;;;;5070862;28;20046;-78
2022/12/13 00:15:15;;;;;;;;;;;-4.50;99.90;;;;;;5040425;28;19932;-78
2022/12/13 00:17:40;;;;;;;;;;;-4.50;99.90;;;;;;5038178;28;19929;-78
2022/12/13 00:20:06;;;;;;;;;;;-4.50;99.90;;;;;;5041438;28;20015;-78
2022/12/13 00:22:32;;;;;;;;;;;-4.50;99.90;;;;;;5044027;28;20257;-78
2022/12/13 00:24:57;;;;;;;;;;;-4.50;99.90;;;;;;5038758;28;19924;-78
2022/12/13 00:27:23;;;;;;;;;;;-4.50;99.90;;;;;;5053520;28;19932;-78
2022/12/13 00:29:49;;;;;;;;;;;-4.50;99.90;;;;;;5045038;28;19933;-82
2022/12/13 00:32:15;;;;;;;;;;;-4.50;99.90;;;;;;5042900;28;19995;-77
2022/12/13 00:34:41;;;;;;;;;;;-4.60;99.90;;;;;;5037824;28;19936;-78
2022/12/13 00:37:06;;;;;;;;;;;-4.60;99.90;;;;;;5054103;28;19925;-78
2022/12/13 00:39:32;;;;;;;;;;;-4.70;99.90;;;;;;5050804;28;19951;-78
2022/12/13 00:41:57;;;;;;;;;;;-4.80;99.90;;;;;;5049680;28;20315;-77
2022/12/13 00:44:23;;;;;;;;;;;-4.80;99.90;;;;;;5041381;28;19928;-77
2022/12/13 00:46:50;;;;;;;;;;;-4.80;99.90;;;;;;5045698;28;19925;-78
2022/12/13 00:49:16;;;;;;;;;;;-4.90;99.90;;;;;;5035395;28;20390;-78
2022/12/13 00:51:41;;;;;;;;;;;-4.80;99.90;;;;;;5044636;28;20025;-78
2022/12/13 00:54:08;;;;;;;;;;;-4.80;99.90;;;;;;5054276;28;19929;-78
2022/12/13 00:56:35;;;;;;;;;;;-4.80;99.90;;;;;;5047045;28;20314;-77
2022/12/13 00:59:01;;;;;;;;;;;-4.80;99.90;;;;;;5050180;28;20413;-78
2022/12/13 01:01:29;;;;;;;;;;;-4.70;99.90;;;;;;5043354;28;19972;-78
2022/12/13 01:03:55;;;;;;;;;;;-4.60;99.90;;;;;;5042231;28;19925;-79
2022/12/13 01:06:32;;;;;;;;;;;-4.60;99.90;;;;;;5039908;28;20013;-78
2022/12/13 01:08:58;;;;;;;;;;;-4.60;99.90;;;;;;5043316;28;20019;-78
2022/12/13 01:11:24;;;;;;;;;;;-4.60;99.90;;;;;;5041497;28;20020;-78
2022/12/13 01:13:50;;;;;;;;;;;-4.60;99.90;;;;;;5037384;28;19944;-78
2022/12/13 01:16:17;;;;;;;;;;;-4.50;99.90;;;;;;5072377;28;19924;-78
2022/12/13 01:18:43;;;;;;;;;;;-4.50;99.90;;;;;;5036147;28;20019;-78
2022/12/13 01:21:13;;;;;;;;;;;-4.50;99.90;;;;;;5042390;28;20044;-78
2022/12/13 01:23:40;;;;;;;;;;;-4.50;99.90;;;;;;5037851;28;20662;-78
2022/12/13 01:26:06;;;;;;;;;;;-4.50;99.90;;;;;;5073129;28;19929;-78
2022/12/13 01:28:32;;;;;;;;;;;-4.50;99.90;;;;;;5043211;28;19981;-78
2022/12/13 01:31:02;;;;;;;;;;;-4.50;99.90;;;;;;5072075;28;20059;-80
2022/12/13 01:33:28;;;;;;;;;;;-4.50;99.90;;;;;;5037156;28;19950;-78
2022/12/13 01:35:54;;;;;;;;;;;-4.50;99.90;;;;;;5040497;28;19924;-78
2022/12/13 01:38:20;;;;;;;;;;;-4.50;99.90;;;;;;5038136;28;19933;-80
2022/12/13 01:40:48;;;;;;;;;;;-4.50;99.90;;;;;;5039530;28;19931;-78
2022/12/13 01:43:15;;;;;;;;;;;-4.50;99.90;;;;;;5040363;28;20015;-78
2022/12/13 01:45:41;;;;;;;;;;;-4.50;99.90;;;;;;5043061;28;19925;-78
2022/12/13 01:48:13;;;;;;;;;;;-4.50;99.90;;;;;;5040613;28;19932;-78
2022/12/13 01:50:41;;;;;;;;;;;-4.50;99.90;;;;;;5038615;28;19961;-79
2022/12/13 01:53:07;;;;;;;;;;;-4.60;99.90;;;;;;5040100;28;19926;-78
2022/12/13 01:55:35;;;;;;;;;;;-4.60;99.90;;;;;;5039440;28;19948;-78
2022/12/13 01:58:01;;;;;;;;;;;-4.60;99.90;;;;;;5068627;28;19932;-82
2022/12/13 02:00:27;;;;;;;;;;;-4.50;99.90;;;;;;5046135;28;20356;-78
2022/12/13 02:02:56;;;;;;;;;;;-4.60;99.90;;;;;;5038108;28;19940;-83
2022/12/13 02:05:25;;;;;;;;;;;-4.60;99.90;;;;;;5043130;28;20275;-78
2022/12/13 02:07:51;;;;;;;;;;;-4.70;99.90;;;;;;5072206;28;20014;-77
2022/12/13 02:10:17;;;;;;;;;;;-4.60;99.90;;;;;;5044938;28;19980;-80
2022/12/13 02:12:43;;;;;;;;;;;-4.60;99.90;;;;;;5048968;28;19929;-78
2022/12/13 02:15:10;;;;;;;;;;;-4.60;99.90;;;;;;5025196;28;19929;-78
2022/12/13 02:17:48;;;;;;;;;;;-4.60;99.90;;;;;;5066837;28;19925;-78
2022/12/13 02:20:29;;;;;;;;;;;-4.50;99.90;;;;;;5045335;28;20066;-78
2022/12/13 02:23:01;;;;;;;;;;;-4.50;99.90;;;;;;5042471;28;20043;-80
2022/12/13 02:25:50;;;;;;;;;;;-4.50;99.90;;;;;;5042519;28;19925;-77
2022/12/13 02:28:24;;;;;;;;;;;-4.50;99.90;;;;;;5034304;28;19940;-85
2022/12/13 02:30:51;;;;;;;;;;;-4.50;99.90;;;;;;5038011;28;20020;-78
2022/12/13 02:33:36;;;;;;;;;;;-4.50;99.90;;;;;;5045933;28;19924;-78
2022/12/13 02:36:16;;;;;;;;;;;-4.50;99.90;;;;;;5048354;28;20034;-78
2022/12/13 02:38:46;;;;;;;;;;;-4.60;99.90;;;;;;5048937;28;19948;-78
2022/12/13 02:41:24;;;;;;;;;;;-4.70;99.90;;;;;;5043634;28;20369;-81
2022/12/13 02:44:09;;;;;;;;;;;-4.70;99.90;;;;;;5041489;28;20445;-77
2022/12/13 02:46:39;;;;;;;;;;;-4.80;99.90;;;;;;5047943;28;19925;-77
2022/12/13 02:49:05;;;;;;;;;;;-4.80;99.90;;;;;;5053263;28;19925;-78
2022/12/13 02:51:31;;;;;;;;;;;-4.80;99.90;;;;;;5053679;28;19970;-78
2022/12/13 02:53:56;;;;;;;;;;;-4.70;99.90;;;;;;5038292;28;19925;-80
2022/12/13 02:56:22;;;;;;;;;;;-4.70;99.90;;;;;;5040427;28;20007;-78
2022/12/13 02:58:48;;;;;;;;;;;-4.70;99.90;;;;;;5053571;28;19925;-77
2022/12/13 03:01:26;;;;;;;;;;;-4.80;99.90;;;;;;5043682;28;19925;-78
2022/12/13 03:04:01;;;;;;;;;;;-4.90;99.90;;;;;;5038238;28;20324;-78
2022/12/13 03:06:45;;;;;;;;;;;-4.90;99.90;;;;;;5039187;28;19932;-77
2022/12/13 03:09:19;;;;;;;;;;;-4.90;99.90;;;;;;5064394;28;19967;-83
2022/12/13 03:14:48;;;;;;;;;;;-5.00;99.90;;;;;;5042324;28;19925;-79
2022/12/13 03:17:15;;;;;;;;;;;-5.00;99.90;;;;;;5044006;28;20021;-77
2022/12/13 03:19:41;;;;;;;;;;;-5.10;99.90;;;;;;5071254;28;19939;-80
2022/12/13 03:22:06;;;;;;;;;;;-5.20;99.90;;;;;;5044231;28;19937;-78
2022/12/13 03:24:32;;;;;;;;;;;-5.20;99.90;;;;;;5041913;28;19925;-77
2022/12/13 03:26:57;;;;;;;;;;;-5.20;99.90;;;;;;5043272;28;19998;-78
2022/12/13 03:29:23;;;;;;;;;;;-5.20;99.90;;;;;;5039138;28;19944;-78
2022/12/13 03:31:48;;;;;;;;;;;-5.20;99.90;;;;;;5040762;28;20022;-77
2022/12/13 03:34:14;;;;;;;;;;;-5.30;99.90;;;;;;5067088;28;20273;-78
2022/12/13 03:36:40;;;;;;;;;;;-5.30;99.90;;;;;;5040316;28;19994;-77
2022/12/13 03:39:05;;;;;;;;;;;-5.30;99.90;;;;;;5041284;28;19929;-77
2022/12/13 03:41:31;;;;;;;;;;;-5.30;99.90;;;;;;5043299;28;19931;-77
2022/12/13 03:44:04;;;;;;;;;;;-5.30;99.90;;;;;;5038863;28;20039;-77
2022/12/13 03:46:30;;;;;;;;;;;-5.30;99.90;;;;;;5038490;28;20380;-78
2022/12/13 03:48:56;;;;;;;;;;;-5.30;99.90;;;;;;5044793;28;19983;-78
2022/12/13 03:51:21;;;;;;;;;;;-5.40;99.90;;;;;;5042264;28;19994;-77
2022/12/13 03:53:47;;;;;;;;;;;-5.40;99.90;;;;;;5039971;28;19951;-77
2022/12/13 03:56:12;;;;;;;;;;;-5.40;99.90;;;;;;5047506;28;19983;-78
2022/12/13 03:58:41;;;;;;;;;;;-5.30;99.90;;;;;;5049043;28;20315;-78
2022/12/13 04:01:08;;;;;;;;;;;-5.30;99.90;;;;;;5045094;28;19933;-78
2022/12/13 04:03:33;;;;;;;;;;;-5.30;99.90;;;;;;5038459;28;20033;-78
2022/12/13 04:05:59;;;;;;;;;;;-5.30;99.90;;;;;;5044900;28;20431;-83
2022/12/13 04:08:25;;;;;;;;;;;-5.40;99.90;;;;;;5045244;28;19983;-78
2022/12/13 04:10:50;;;;;;;;;;;-5.40;99.90;;;;;;5046147;28;19924;-77
2022/12/13 04:13:31;;;;;;;;;;;-5.40;99.90;;;;;;5045197;28;19929;-77
2022/12/13 04:15:57;;;;;;;;;;;-5.50;99.90;;;;;;5021013;28;19936;-78
2022/12/13 04:18:22;;;;;;;;;;;-5.40;99.90;;;;;;5040915;28;19925;-77
2022/12/13 04:20:48;;;;;;;;;;;-5.60;99.90;;;;;;5037974;28;20051;-78
2022/12/13 04:23:14;;;;;;;;;;;-5.60;99.90;;;;;;5036333;28;20023;-81
2022/12/13 04:25:40;;;;;;;;;;;-5.60;99.90;;;;;;5034026;28;19933;-77
2022/12/13 04:28:05;;;;;;;;;;;-5.60;99.90;;;;;;5045497;28;19975;-77
2022/12/13 04:30:32;;;;;;;;;;;-5.60;99.90;;;;;;5047532;28;19925;-78
2022/12/13 04:32:57;;;;;;;;;;;-5.60;99.90;;;;;;5023739;28;20020;-77
2022/12/13 04:35:23;;;;;;;;;;;-5.60;99.90;;;;;;5038308;28;20035;-78
2022/12/13 04:37:49;;;;;;;;;;;-5.60;99.90;;;;;;5064656;28;20348;-77
2022/12/13 04:40:14;;;;;;;;;;;-5.50;99.90;;;;;;5052101;28;20425;-77
2022/12/13 04:42:40;;;;;;;;;;;-5.60;99.90;;;;;;5035161;28;19928;-77
2022/12/13 04:45:06;;;;;;;;;;;-5.50;99.90;;;;;;5040058;28;20344;-77
2022/12/13 04:47:31;;;;;;;;;;;-5.60;99.90;;;;;;5046135;28;19936;-78
2022/12/13 04:49:57;;;;;;;;;;;-5.60;99.90;;;;;;5038543;28;19936;-79
2022/12/13 04:52:22;;;;;;;;;;;-5.50;99.90;;;;;;5038419;28;19924;-81
2022/12/13 04:54:48;;;;;;;;;;;-5.50;99.90;;;;;;5027001;28;20601;-77
2022/12/13 04:57:14;;;;;;;;;;;-5.50;99.90;;;;;;5046072;28;19925;-77
2022/12/13 04:59:40;;;;;;;;;;;-5.50;99.90;;;;;;5046926;28;20103;-78
2022/12/13 05:02:06;;;;;;;;;;;-5.50;99.90;;;;;;5044951;28;19932;-78
2022/12/13 05:04:32;;;;;;;;;;;-5.50;99.90;;;;;;5042275;28;19925;-80
2022/12/13 05:06:57;;;;;;;;;;;-5.50;99.90;;;;;;5039753;28;19926;-82
2022/12/13 05:09:23;;;;;;;;;;;-5.60;99.90;;;;;;5038359;28;19944;-77
2022/12/13 05:11:49;;;;;;;;;;;-5.60;99.90;;;;;;5041224;28;20291;-77
2022/12/13 05:14:15;;;;;;;;;;;-5.60;99.90;;;;;;5044214;28;19932;-77
2022/12/13 05:16:40;;;;;;;;;;;-5.70;99.90;;;;;;5039799;28;19925;-78
2022/12/13 05:19:06;;;;;;;;;;;-5.70;99.90;;;;;;5040287;28;20087;-77
2022/12/13 05:21:33;;;;;;;;;;;-5.60;99.90;;;;;;5039726;28;19925;-77
2022/12/13 05:24:00;;;;;;;;;;;-5.60;99.90;;;;;;5042024;28;20236;-78
2022/12/13 05:26:25;;;;;;;;;;;-5.70;99.90;;;;;;5041919;28;19932;-77
2022/12/13 05:28:51;;;;;;;;;;;-5.60;99.90;;;;;;5032613;28;19925;-80
2022/12/13 05:31:16;;;;;;;;;;;-5.70;99.90;;;;;;5040595;28;19971;-77
2022/12/13 05:33:42;;;;;;;;;;;-5.70;99.90;;;;;;5040750;28;19962;-78
2022/12/13 05:36:08;;;;;;;;;;;-5.70;99.90;;;;;;5044372;28;20280;-79
2022/12/13 05:38:34;;;;;;;;;;;-5.70;99.90;;;;;;5043862;28;19952;-83
2022/12/13 05:41:00;;;;;;;;;;;-5.70;99.90;;;;;;5029643;28;19939;-78
2022/12/13 05:43:26;;;;;;;;;;;-5.70;99.90;;;;;;5044076;28;20027;-78
2022/12/13 05:45:51;;;;;;;;;;;-5.70;99.90;;;;;;5050051;28;20368;-78
2022/12/13 05:48:17;;;;;;;;;;;-5.70;99.90;;;;;;5046512;28;19924;-78
2022/12/13 05:50:42;;;;;;;;;;;-5.60;99.90;;;;;;5045778;28;20398;-84
2022/12/13 05:53:08;;;;;;;;;;;-5.60;99.90;;;;;;5045502;28;19939;-80
2022/12/13 05:55:35;;;;;;;;;;;-5.60;99.90;;;;;;5025740;28;19933;-78
2022/12/13 05:58:01;;;;;;;;;;;-5.60;99.90;;;;;;5045411;28;20387;-77
2022/12/13 06:00:27;;;;;;;;;;;-5.60;99.90;;;;;;5015500;28;19928;-77
2022/12/13 06:02:52;;;;;;;;;;;-5.60;99.90;;;;;;5039885;28;19967;-77
2022/12/13 06:05:18;;;;;;;;;;;-5.60;99.90;;;;;;5046531;28;19937;-78
2022/12/13 06:07:44;;;;;;;;;;;-5.60;99.90;;;;;;5039162;28;19928;-78
2022/12/13 06:10:09;;;;;;;;;;;-5.50;99.90;;;;;;5044538;28;19929;-77
2022/12/13 06:12:35;;;;;;;;;;;-5.50;99.90;;;;;;5041552;28;19936;-77
2022/12/13 06:15:01;;;;;;;;;;;-5.50;99.90;;;;;;5043593;28;19947;-77
2022/12/13 06:17:45;;;;;;;;;;;-5.50;99.90;;;;;;5040145;28;20368;-78
2022/12/13 06:20:10;;;;;;;;;;;-5.40;99.90;;;;;;5041208;28;20019;-78
2022/12/13 06:22:36;;;;;;;;;;;-5.50;99.90;;;;;;5046108;28;20042;-79
2022/12/13 06:25:02;;;;;;;;;;;-5.40;99.90;;;;;;5043248;28;19932;-78
2022/12/13 06:27:27;;;;;;;;;;;-5.40;99.90;;;;;;5037978;28;19947;-78
2022/12/13 06:29:53;;;;;;;;;;;-5.30;99.90;;;;;;5040693;28;19933;-78
2022/12/13 06:32:18;;;;;;;;;;;-5.30;99.90;;;;;;5039614;28;20070;-78
2022/12/13 06:34:44;;;;;;;;;;;-5.40;99.90;;;;;;5035304;28;19940;-83
2022/12/13 06:37:11;;;;;;;;;;;-5.40;99.90;;;;;;5043604;28;19939;-78
2022/12/13 06:39:36;;;;;;;;;;;-5.50;99.90;;;;;;5040836;28;19940;-80
2022/12/13 06:42:04;;;;;;;;;;;-5.50;99.90;;;;;;5067947;28;19929;-78
2022/12/13 06:44:30;;;;;;;;;;;-5.50;99.90;;;;;;5044369;28;19936;-78
2022/12/13 06:46:56;;;;;;;;;;;-5.50;99.90;;;;;;5041446;28;19929;-78
2022/12/13 06:49:21;;;;;;;;;;;-5.50;99.90;;;;;;5043694;28;20300;-77
2022/12/13 06:51:47;;;;;;;;;;;-5.40;99.90;;;;;;5039883;28;20056;-78
2022/12/13 06:54:12;;;;;;;;;;;-5.40;99.90;;;;;;5042738;28;19932;-78
2022/12/13 06:56:38;;;;;;;;;;;-5.30;99.90;;;;;;5040607;28;19939;-79
2022/12/13 06:59:03;;;;;;;;;;;-5.30;99.90;;;;;;5042035;28;19943;-79
2022/12/13 07:01:29;;;;;;;;;;;-5.40;99.90;;;;;;5058864;28;19983;-78
2022/12/13 07:03:55;;;;;;;;;;;-5.40;99.90;;;;;;5073405;28;20381;-78
2022/12/13 07:06:22;;;;;;;;;;;-5.50;99.90;;;;;;5044835;28;19967;-78
2022/12/13 07:08:49;;;;;;;;;;;-5.60;99.90;;;;;;5043821;28;19932;-78
2022/12/13 07:11:18;;;;;;;;;;;-5.60;99.90;;;;;;5039768;28;19965;-80
2022/12/13 07:13:44;;;;;;;;;;;-5.60;99.90;;;;;;5036768;28;19925;-77
2022/12/13 07:16:10;;;;;;;;;;;-5.50;99.90;;;;;;5048128;28;19975;-78
2022/12/13 07:18:36;;;;;;;;;;;-5.50;99.90;;;;;;5050097;28;19929;-76
2022/12/13 07:21:05;;;;;;;;;;;-5.40;99.90;;;;;;5041952;28;20046;-77
2022/12/13 07:23:31;;;;;;;;;;;-5.50;99.90;;;;;;5050424;28;20292;-77
2022/12/13 07:25:56;;;;;;;;;;;-5.50;99.90;;;;;;5041328;28;19929;-78
2022/12/13 07:28:22;;;;;;;;;;;-5.50;99.90;;;;;;5054030;28;19974;-78
2022/12/13 07:30:48;;;;;;;;;;;-5.50;99.90;;;;;;5052926;28;20055;-78
2022/12/13 07:33:14;;;;;;;;;;;-5.50;99.90;;;;;;5051214;28;19924;-78
2022/12/13 07:35:40;;;;;;;;;;;-5.50;99.90;;;;;;5053828;28;19971;-78
2022/12/13 07:38:06;;;;;;;;;;;-5.40;99.90;;;;;;5034002;28;19936;-78
2022/12/13 07:40:35;;;;;;;;;;;-5.40;99.90;;;;;;5043237;28;19998;-78
2022/12/13 07:43:00;;;;;;;;;;;-5.30;99.90;;;;;;5051494;28;20383;-80
2022/12/13 07:45:26;;;;;;;;;;;-5.40;99.90;;;;;;5068467;28;19979;-78
2022/12/13 07:47:52;;;;;;;;;;;-5.30;99.90;;;;;;5076880;28;19924;-78
2022/12/13 07:50:19;;;;;;;;;;;-5.30;99.90;;;;;;5038287;28;19959;-78
2022/12/13 07:52:48;;;;;;;;;;;-5.30;99.90;;;;;;5052524;28;19935;-78
2022/12/13 07:55:13;;;;;;;;;;;-5.20;99.90;;;;;;5045225;28;19925;-77
2022/12/13 07:57:39;;;;;;;;;;;-5.20;99.90;;;;;;5047728;28;19946;-78
2022/12/13 08:00:05;;;;;;;;;;;-5.20;99.90;;;;;;5039070;28;19929;-77
2022/12/13 08:02:31;;;;;;;;;;;-5.20;99.90;;;;;;5049349;28;19929;-77
2022/12/13 08:04:56;;;;;;;;;;;-5.20;99.90;;;;;;5043590;28;20296;-77
2022/12/13 08:07:22;;;;;;;;;;;-5.20;99.90;;;;;;5057777;28;19968;-77
2022/12/13 08:09:47;;;;;;;;;;;-5.10;99.90;;;;;;5048219;28;20395;-77
2022/12/13 08:12:13;;;;;;;;;;;-5.10;99.90;;;;;;5046891;28;19925;-81
2022/12/13 08:14:39;;;;;;;;;;;-5.00;99.90;;;;;;5047638;28;19925;-77
2022/12/13 08:17:04;;;;;;;;;;;-5.00;99.90;;;;;;5039818;28;19948;-78
2022/12/13 08:19:30;;;;;;;;;;;-5.00;99.90;;;;;;5052212;28;19970;-77
2022/12/13 08:21:56;;;;;;;;;;;-4.90;99.90;;;;;;5041477;28;20071;-82
2022/12/13 08:24:22;;;;;;;;;;;-4.90;99.90;;;;;;5050366;28;19932;-78
2022/12/13 08:26:48;;;;;;;;;;;-4.80;99.90;;;;;;5058791;28;19944;-77
2022/12/13 08:29:14;;;;;;;;;;;-4.80;99.90;;;;;;5044021;28;19924;-77
2022/12/13 08:31:39;;;;;;;;;;;-4.70;99.90;;;;;;5040533;28;20028;-77
2022/12/13 08:34:05;;;;;;;;;;;-4.60;99.90;;;;;;5045637;28;20015;-80
2022/12/13 08:36:31;;;;;;;;;;;-4.50;99.90;;;;;;5049060;28;19924;-77
2022/12/13 08:38:57;;;;;;;;;;;-4.50;99.90;;;;;;5040316;28;19951;-77
2022/12/13 08:41:23;;;;;;;;;;;-4.40;99.90;;;;;;5034816;28;19928;-77
2022/12/13 08:43:49;;;;;;;;;;;-4.40;99.90;;;;;;5047462;28;19932;-77
2022/12/13 08:46:14;;;;;;;;;;;-4.30;99.90;;;;;;5047035;28;19921;-77
2022/12/13 08:48:40;;;;;;;;;;;-4.30;99.90;;;;;;5044503;28;19932;-77
2022/12/13 08:51:07;;;;;;;;;;;-4.20;99.90;;;;;;5043197;28;19935;-78
2022/12/13 08:53:33;;;;;;;;;;;-4.10;99.90;;;;;;5033263;28;19959;-77
2022/12/13 08:56:03;;;;;;;;;;;-4.00;99.90;;;;;;5051255;28;19925;-77
2022/12/13 08:58:28;;;;;;;;;;;-4.00;99.90;;;;;;5048028;28;20328;-80
2022/12/13 09:00:54;;;;;;;;;;;-3.90;99.90;;;;;;5051080;28;19964;-77
2022/12/13 09:03:20;;;;;;;;;;;-3.80;99.90;;;;;;5052231;28;19936;-77
2022/12/13 09:05:46;;;;;;;;;;;-3.70;99.90;;;;;;5047207;28;19921;-77
2022/12/13 09:08:11;;;;;;;;;;;-3.70;99.90;;;;;;5040260;28;19961;-77
2022/12/13 09:10:37;;;;;;;;;;;-3.50;99.90;;;;;;5040483;28;20288;-77
2022/12/13 09:13:03;;;;;;;;;;;-3.40;99.90;;;;;;5035412;28;19925;-77
2022/12/13 09:15:29;;;;;;;;;;;-3.10;99.90;;;;;;5069073;28;19921;-78
2022/12/13 09:17:55;;;;;;;;;;;-2.70;99.90;;;;;;5053524;28;19986;-78
2022/12/13 09:20:20;;;;;;;;;;;-2.30;99.90;;;;;;5069225;28;20371;-78
2022/12/13 09:22:46;;;;;;;;;;;-1.90;99.90;;;;;;5050312;28;19944;-77
2022/12/13 09:25:12;;;;;;;;;;;-1.40;99.90;;;;;;5046529;28;19966;-77
2022/12/13 09:27:37;;;;;;;;;;;-0.80;99.90;;;;;;5053565;28;19989;-78
2022/12/13 09:30:04;;;;;;;;;;;-0.20;99.90;;;;;;5076249;28;19920;-78
2022/12/13 09:32:30;;;;;;;;;;;0.20;99.90;;;;;;5038024;28;19932;-79
2022/12/13 09:34:55;;;;;;;;;;;0.60;99.90;;;;;;5055108;28;19924;-77
2022/12/13 09:37:21;;;;;;;;;;;0.70;99.90;;;;;;5038491;28;19929;-77
2022/12/13 09:39:46;;;;;;;;;;;0.80;99.90;;;;;;5052034;28;19921;-78
2022/12/13 09:42:21;;;;;;;;;;;1.00;99.90;;;;;;5049634;28;19932;-78
2022/12/13 09:45:05;;;;;;;;;;;1.20;99.90;;;;;;5047121;28;19921;-79
2022/12/13 09:47:36;;;;;;;;;;;1.50;99.90;;;;;;5046224;28;19925;-77
2022/12/13 09:50:11;;;;;;;;;;;1.60;99.90;;;;;;5044241;28;19925;-77
2022/12/13 09:52:38;;;;;;;;;;;1.70;99.90;;;;;;5056305;28;19920;-77
2022/12/13 09:55:17;;;;;;;;;;;1.50;99.90;;;;;;5052554;28;19970;-83
2022/12/13 09:57:43;;;;;;;;;;;1.00;99.90;;;;;;5044158;28;19928;-77
2022/12/13 10:00:13;;;;;;;;;;;0.50;99.90;;;;;;5050571;28;19920;-78
2022/12/13 10:02:43;;;;;;;;;;;0.10;99.90;;;;;;5045592;28;20257;-76
2022/12/13 10:05:18;;;;;;;;;;;-0.20;99.90;;;;;;5055319;28;20298;-76
2022/12/13 10:07:43;;;;;;;;;;;-0.50;99.90;;;;;;5018032;28;19928;-77
2022/12/13 10:10:10;;;;;;;;;;;-0.70;99.90;;;;;;5047554;28;19920;-78
2022/12/13 10:12:36;;;;;;;;;;;-0.90;99.90;;;;;;5049846;28;19921;-78
2022/12/13 10:15:02;;;;;;;;;;;-1.00;99.90;;;;;;5030332;28;19925;-77
2022/12/13 10:17:31;;;;;;;;;;;-1.10;99.90;;;;;;5087687;28;19956;-78
2022/12/13 10:19:57;;;;;;;;;;;-1.20;99.90;;;;;;5053035;28;20363;-79
2022/12/13 10:22:22;;;;;;;;;;;-1.20;99.90;;;;;;5048801;28;19920;-79
2022/12/13 10:24:48;;;;;;;;;;;-1.30;99.90;;;;;;5047409;28;19921;-78
2022/12/13 10:27:15;;;;;;;;;;;-1.30;99.90;;;;;;5047767;28;20401;-79
2022/12/13 10:30:01;;;;;;;;;;;-1.30;99.90;;;;;;5054855;28;19925;-79
2022/12/13 10:32:26;;;;;;;;;;;-1.30;99.90;;;;;;5050676;28;20336;-78
2022/12/13 10:34:55;;;;;;;;;;;-1.30;99.90;;;;;;5042551;28;19968;-79
2022/12/13 10:37:30;;;;;;;;;;;-1.30;99.90;;;;;;5054901;28;19921;-79
2022/12/13 10:39:56;;;;;;;;;;;-1.30;99.90;;;;;;5053499;28;20011;-79
2022/12/13 10:42:22;;;;;;;;;;;-1.30;99.90;;;;;;5051676;28;19929;-78
2022/12/13 10:44:48;;;;;;;;;;;-1.30;99.90;;;;;;5052762;28;20420;-78
2022/12/13 10:47:17;;;;;;;;;;;-1.30;99.90;;;;;;5050444;28;19921;-78
2022/12/13 10:49:48;;;;;;;;;;;-1.30;99.90;;;;;;5047699;28;19950;-78
2022/12/13 10:52:22;;;;;;;;;;;-1.30;99.90;;;;;;5055421;28;19928;-78
2022/12/13 10:54:49;;;;;;;;;;;-1.20;99.90;;;;;;5049192;28;19921;-78
2022/12/13 10:57:15;;;;;;;;;;;-1.20;99.90;;;;;;5052674;28;19943;-81
2022/12/13 10:59:41;;;;;;;;;;;-1.20;99.90;;;;;;5053366;28;20031;-79
2022/12/13 11:02:26;;;;;;;;;;;-1.20;99.90;;;;;;5047238;28;19928;-78
2022/12/13 11:04:51;;;;;;;;;;;-1.20;99.90;;;;;;5044962;28;19920;-79
2022/12/13 11:07:26;;;;;;;;;;;-1.20;99.90;;;;;;5049317;28;19920;-79
2022/12/13 11:09:52;;;;;;;;;;;-1.10;99.90;;;;;;5038766;28;19921;-79
2022/12/13 11:12:19;;;;;;;;;;;-1.10;99.90;;;;;;5047755;28;19921;-79
2022/12/13 11:14:51;;;;;;;;;;;-1.10;99.90;;;;;;5039081;28;20271;-78
2022/12/13 11:17:19;;;;;;;;;;;-1.10;99.90;;;;;;5051125;28;19947;-81
2022/12/13 11:19:46;;;;;;;;;;;-1.10;99.90;;;;;;5050914;28;20276;-80
2022/12/13 11:22:31;;;;;;;;;;;-1.00;99.90;;;;;;5042171;28;19956;-79
2022/12/13 11:25:00;;;;;;;;;;;-1.00;99.90;;;;;;5036547;28;20039;-81
2022/12/13 11:27:34;;;;;;;;;;;-0.90;99.90;;;;;;5044970;28;19960;-80
2022/12/13 11:30:03;;;;;;;;;;;-0.90;99.90;;;;;;5050152;28;20244;-80
2022/12/13 11:32:40;;;;;;;;;;;-0.90;99.90;;;;;;5048301;28;20363;-79
2022/12/13 11:35:05;;;;;;;;;;;-0.90;99.90;;;;;;5045987;28;19925;-80
2022/12/13 11:37:38;;;;;;;;;;;-0.90;99.90;;;;;;5038570;28;20039;-79
2022/12/13 11:40:10;;;;;;;;;;;-0.90;99.90;;;;;;5041299;28;20015;-79
2022/12/13 11:42:39;;;;;;;;;;;-0.90;99.90;;;;;;5042622;28;20318;-80
2022/12/13 11:45:05;;;;;;;;;;;-0.80;99.90;;;;;;5044995;28;19936;-79
2022/12/13 11:47:51;;;;;;;;;;;-0.80;99.90;;;;;;5041642;28;19955;-79
2022/12/13 11:50:19;;;;;;;;;;;-0.60;99.90;;;;;;5035502;28;19921;-80
2022/12/13 11:52:52;;;;;;;;;;;-0.60;99.90;;;;;;5044432;28;19932;-79
2022/12/13 11:55:33;;;;;;;;;;;-0.60;99.90;;;;;;5046487;28;20355;-80
2022/12/13 11:58:13;;;;;;;;;;;-0.60;99.90;;;;;;5042737;28;19921;-80
2022/12/13 12:00:44;;;;;;;;;;;-0.50;99.90;;;;;;5048405;28;19921;-80
2022/12/13 12:03:17;;;;;;;;;;;-0.40;99.90;;;;;;5051469;28;20361;-80
2022/12/13 12:05:46;;;;;;;;;;;-0.40;99.90;;;;;;5047301;28;19924;-80
2022/12/13 12:08:24;;;;;;;;;;;-0.30;99.90;;;;;;5032924;28;20334;-86
2022/12/13 12:10:57;;;;;;;;;;;-0.30;99.90;;;;;;5036365;28;19975;-80
2022/12/13 12:13:29;;;;;;;;;;;-0.20;99.90;;;;;;5032931;28;19960;-79
2022/12/13 12:15:58;;;;;;;;;;;-0.20;99.90;;;;;;5046527;28;20333;-79
2022/12/13 12:18:24;;;;;;;;;;;-0.10;99.90;;;;;;5033877;28;19967;-79
2022/12/13 12:21:15;;;;;;;;;;;0.00;99.90;;;;;;5028425;28;19925;-80
2022/12/13 12:23:49;;;;;;;;;;;-0.10;99.90;;;;;;5052046;28;19921;-81
2022/12/13 12:26:16;;;;;;;;;;;0.00;99.90;;;;;;5047072;28;19925;-79
2022/12/13 12:28:41;;;;;;;;;;;0.00;99.90;;;;;;5043544;28;20360;-79
2022/12/13 12:31:16;;;;;;;;;;;0.00;99.90;;;;;;5040231;28;19960;-79
2022/12/13 12:33:57;;;;;;;;;;;0.00;99.90;;;;;;5041144;28;20306;-83
2022/12/13 12:36:25;;;;;;;;;;;0.10;99.90;;;;;;5050196;28;19921;-79
2022/12/13 12:38:51;;;;;;;;;;;0.10;99.90;;;;;;5052791;28;20237;-79
2022/12/13 12:41:25;;;;;;;;;;;0.10;99.90;;;;;;5072941;28;19928;-79
2022/12/13 12:43:54;;;;;;;;;;;0.10;99.90;;;;;;5020623;28;19927;-80
2022/12/13 12:46:33;;;;;;;;;;;0.20;99.90;;;;;;5048024;28;19951;-81
2022/12/13 12:49:11;;;;;;;;;;;0.30;99.90;;;;;;5038880;28;19932;-80
2022/12/13 12:51:56;;;;;;;;;;;0.40;99.90;;;;;;5039183;28;19925;-81
2022/12/13 12:54:31;;;;;;;;;;;0.40;99.90;;;;;;5043293;28;20202;-80
2022/12/13 12:57:03;;;;;;;;;;;0.40;99.90;;;;;;5042754;28;19925;-80
2022/12/13 12:59:29;;;;;;;;;;;0.50;99.90;;;;;;5051627;28;19964;-80
2022/12/13 13:02:30;;;;;;;;;;;0.50;99.90;;;;;;5051957;28;19970;-80
2022/12/13 13:05:15;;;;;;;;;;;0.50;99.90;;;;;;4955528;28;20041;-80
2022/12/13 13:07:46;;;;;;;;;;;0.50;99.90;;;;;;5033301;28;19943;-80
2022/12/13 13:10:11;;;;;;;;;;;0.40;99.90;;;;;;5051575;28;20130;-81
2022/12/13 13:12:39;;;;;;;;;;;0.40;99.90;;;;;;5050994;28;20011;-81
2022/12/13 13:15:27;;;;;;;;;;;0.40;99.90;;;;;;5052475;28;20390;-80
2022/12/13 13:17:53;;;;;;;;;;;0.30;99.90;;;;;;5012835;28;19921;-80
2022/12/13 13:20:22;;;;;;;;;;;0.20;99.90;;;;;;5034848;28;20042;-80
2022/12/13 13:22:49;;;;;;;;;;;0.30;99.90;;;;;;5066033;28;20299;-80
2022/12/13 13:25:20;;;;;;;;;;;0.20;99.90;;;;;;5035876;28;19929;-80
2022/12/13 13:27:47;;;;;;;;;;;0.30;99.90;;;;;;5048963;28;19921;-80
2022/12/13 13:30:20;;;;;;;;;;;0.20;99.90;;;;;;5042279;28;19983;-80
2022/12/13 13:32:46;;;;;;;;;;;0.20;99.90;;;;;;5034090;28;19999;-81
2022/12/13 13:35:27;;;;;;;;;;;0.20;99.90;;;;;;5050701;28;20012;-81
2022/12/13 13:37:53;;;;;;;;;;;0.20;99.90;;;;;;5037976;28;19921;-80
2022/12/13 13:40:27;;;;;;;;;;;0.10;99.90;;;;;;5043230;28;19921;-80
2022/12/13 13:43:13;;;;;;;;;;;0.10;99.90;;;;;;5046458;28;19960;-82
2022/12/13 13:45:51;;;;;;;;;;;0.10;99.90;;;;;;5047679;28;19947;-81
2022/12/13 13:48:25;;;;;;;;;;;0.10;99.90;;;;;;5032192;28;19925;-80
2022/12/13 13:50:53;;;;;;;;;;;0.00;99.90;;;;;;5044784;28;19983;-80
2022/12/13 13:53:22;;;;;;;;;;;0.00;99.90;;;;;;5045406;28;20018;-84
2022/12/13 13:55:48;;;;;;;;;;;0.10;99.90;;;;;;5047507;28;20055;-80
2022/12/13 13:58:20;;;;;;;;;;;0.00;99.90;;;;;;5047956;28;19921;-80
2022/12/13 14:01:04;;;;;;;;;;;0.00;99.90;;;;;;5037887;28;19920;-80
2022/12/13 14:03:33;;;;;;;;;;;-0.10;99.90;;;;;;5041156;28;19947;-80
2022/12/13 14:06:01;;;;;;;;;;;-0.10;99.90;;;;;;5052327;28;19921;-80
2022/12/13 14:08:46;;;;;;;;;;;-0.20;99.90;;;;;;5054660;28;19921;-80
2022/12/13 14:11:23;;;;;;;;;;;-0.30;99.90;;;;;;5074959;28;20363;-80
2022/12/13 14:14:27;;;;;;;;;;;-0.30;99.90;;;;;;5054141;28;19978;-80
2022/12/13 14:17:22;;;;;;;;;;;-0.40;99.90;;;;;;5011580;28;20265;-80
2022/12/13 14:20:06;;;;;;;;;;;-0.50;99.90;;;;;;4984308;28;20431;-80
2022/12/13 14:22:38;;;;;;;;;;;-0.50;99.90;;;;;;5042921;28;20003;-80
2022/12/13 14:25:12;;;;;;;;;;;-0.60;99.90;;;;;;5042990;28;19925;-80
2022/12/13 14:27:46;;;;;;;;;;;-0.70;99.90;;;;;;5053967;28;19921;-80
2022/12/13 14:30:17;;;;;;;;;;;-0.80;99.90;;;;;;5045947;28;19925;-80